createdAt,value
2018-02-25T00:01:26.352Z,-2.70
2018-02-25T00:03:52.955Z,-2.80
2018-02-25T00:06:20.286Z,-2.80
2018-02-25T00:08:46.887Z,-2.80
2018-02-25T00:11:13.439Z,-2.90
2018-02-25T00:13:40.044Z,-2.80
2018-02-25T00:16:06.603Z,-2.80
2018-02-25T00:18:33.187Z,-2.90
2018-02-25T00:20:59.801Z,-2.90
2018-02-25T00:23:26.413Z,-3.00
2018-02-25T00:25:52.991Z,-3.00
2018-02-25T00:28:19.558Z,-3.00
2018-02-25T00:30:46.883Z,-3.00
2018-02-25T00:33:13.473Z,-3.00
2018-02-25T00:35:40.771Z,-3.00
2018-02-25T00:38:07.342Z,-3.00
2018-02-25T00:40:33.920Z,-3.10
2018-02-25T00:43:00.511Z,-3.10
2018-02-25T00:45:27.172Z,-3.10
2018-02-25T00:47:53.774Z,-3.10
2018-02-25T00:50:20.386Z,-3.20
2018-02-25T00:52:46.948Z,-3.20
2018-02-25T00:55:13.533Z,-3.20
2018-02-25T00:57:40.177Z,-3.20
2018-02-25T01:00:06.762Z,-3.30
2018-02-25T01:02:33.368Z,-3.20
2018-02-25T01:04:59.943Z,-3.10
2018-02-25T01:07:26.594Z,-3.20
2018-02-25T01:09:53.156Z,-3.30
2018-02-25T01:12:19.759Z,-3.10
2018-02-25T01:14:46.366Z,-3.20
2018-02-25T01:17:12.976Z,-3.30
2018-02-25T01:19:40.281Z,-3.40
2018-02-25T01:22:06.875Z,-3.40
2018-02-25T01:24:33.445Z,-3.40
2018-02-25T01:27:00.786Z,-3.50
2018-02-25T01:29:27.376Z,-3.50
2018-02-25T01:31:53.966Z,-3.50
2018-02-25T01:34:20.561Z,-3.50
2018-02-25T01:36:47.906Z,-3.50
2018-02-25T01:39:14.497Z,-3.50
2018-02-25T01:41:41.094Z,-3.60
2018-02-25T01:44:07.736Z,-3.50
2018-02-25T01:46:34.289Z,-3.60
2018-02-25T01:49:00.893Z,-3.60
2018-02-25T01:51:27.455Z,-3.50
2018-02-25T01:53:54.023Z,-3.60
2018-02-25T01:56:20.603Z,-3.60
2018-02-25T01:58:47.248Z,-3.70
2018-02-25T02:01:13.834Z,-3.70
2018-02-25T02:03:40.455Z,-3.70
2018-02-25T02:06:07.034Z,-3.70
2018-02-25T02:08:33.642Z,-3.70
2018-02-25T02:11:00.214Z,-3.70
2018-02-25T02:13:27.553Z,-3.70
2018-02-25T02:15:54.095Z,-3.70
2018-02-25T02:18:20.658Z,-3.80
2018-02-25T02:20:47.211Z,-3.80
2018-02-25T02:23:13.770Z,-3.90
2018-02-25T02:25:41.049Z,-3.90
2018-02-25T02:28:07.600Z,-3.90
2018-02-25T02:30:34.141Z,-3.80
2018-02-25T02:33:01.427Z,-4.00
2018-02-25T02:35:27.968Z,-4.00
2018-02-25T02:37:54.537Z,-3.90
2018-02-25T02:40:21.092Z,-3.90
2018-02-25T02:42:47.637Z,-4.00
2018-02-25T02:45:14.180Z,-4.00
2018-02-25T02:47:40.769Z,-4.00
2018-02-25T02:50:07.305Z,-4.00
2018-02-25T02:52:33.903Z,-4.10
2018-02-25T02:55:00.487Z,-4.00
2018-02-25T02:57:27.074Z,-4.00
2018-02-25T02:59:53.644Z,-4.10
2018-02-25T03:02:20.216Z,-4.10
2018-02-25T03:04:46.824Z,-4.00
2018-02-25T03:07:14.150Z,-4.00
2018-02-25T03:09:40.712Z,-4.00
2018-02-25T03:12:07.305Z,-4.10
2018-02-25T03:14:33.881Z,-4.20
2018-02-25T03:17:00.470Z,-4.10
2018-02-25T03:19:27.071Z,-4.10
2018-02-25T03:21:53.654Z,-4.00
2018-02-25T03:24:20.217Z,-4.20
2018-02-25T03:26:47.567Z,-4.30
2018-02-25T03:29:14.165Z,-4.30
2018-02-25T03:31:41.467Z,-4.20
2018-02-25T03:34:08.040Z,-4.20
2018-02-25T03:36:34.610Z,-4.20
2018-02-25T03:39:01.179Z,-4.30
2018-02-25T03:41:28.455Z,-4.40
2018-02-25T03:43:55.025Z,-4.40
2018-02-25T03:46:21.628Z,-4.30
2018-02-25T03:48:48.230Z,-4.40
2018-02-25T03:51:14.779Z,-4.30
2018-02-25T03:53:41.331Z,-4.40
2018-02-25T03:56:11.708Z,-4.50
2018-02-25T03:58:39.054Z,-4.50
2018-02-25T04:01:05.610Z,-4.50
2018-02-25T04:03:32.204Z,-4.50
2018-02-25T04:05:58.776Z,-4.50
2018-02-25T04:08:25.350Z,-4.60
2018-02-25T04:10:51.931Z,-4.60
2018-02-25T04:13:19.216Z,-4.60
2018-02-25T04:15:45.761Z,-4.60
2018-02-25T04:18:12.338Z,-4.50
2018-02-25T04:20:38.922Z,-4.60
2018-02-25T04:23:05.488Z,-4.70
2018-02-25T04:25:32.043Z,-4.70
2018-02-25T04:27:59.394Z,-4.50
2018-02-25T04:30:26.076Z,-4.50
2018-02-25T04:32:52.636Z,-4.60
2018-02-25T04:35:19.197Z,-4.60
2018-02-25T04:37:45.783Z,-4.60
2018-02-25T04:40:12.339Z,-4.60
2018-02-25T04:42:39.617Z,-4.80
2018-02-25T04:45:06.910Z,-4.60
2018-02-25T04:47:33.508Z,-4.70
2018-02-25T04:50:00.057Z,-4.70
2018-02-25T04:52:26.613Z,-4.80
2018-02-25T04:54:53.943Z,-4.90
2018-02-25T04:57:20.496Z,-4.80
2018-02-25T04:59:47.090Z,-4.90
2018-02-25T05:02:14.413Z,-4.90
2018-02-25T05:04:40.994Z,-5.00
2018-02-25T05:07:08.285Z,-4.90
2018-02-25T05:09:34.876Z,-4.90
2018-02-25T05:12:01.446Z,-4.90
2018-02-25T05:14:28.012Z,-5.00
2018-02-25T05:16:55.296Z,-5.00
2018-02-25T05:19:21.852Z,-5.00
2018-02-25T05:21:48.462Z,-5.10
2018-02-25T05:24:15.052Z,-5.10
2018-02-25T05:26:41.660Z,-5.20
2018-02-25T05:29:08.251Z,-5.10
2018-02-25T05:31:34.930Z,-5.10
2018-02-25T05:34:01.492Z,-5.20
2018-02-25T05:36:28.062Z,-5.20
2018-02-25T05:38:54.630Z,-5.20
2018-02-25T05:41:21.935Z,-5.20
2018-02-25T05:43:48.533Z,-5.20
2018-02-25T05:46:15.821Z,-5.00
2018-02-25T05:48:42.420Z,-5.10
2018-02-25T05:51:08.996Z,-5.20
2018-02-25T05:53:36.329Z,-5.40
2018-02-25T05:56:02.960Z,-5.40
2018-02-25T05:58:29.545Z,-5.40
2018-02-25T06:00:56.094Z,-5.40
2018-02-25T06:03:22.652Z,-5.40
2018-02-25T06:05:49.944Z,-5.50
2018-02-25T06:08:16.481Z,-5.50
2018-02-25T06:10:43.071Z,-5.50
2018-02-25T06:13:09.656Z,-5.50
2018-02-25T06:15:36.219Z,-5.50
2018-02-25T06:18:03.516Z,-5.50
2018-02-25T06:20:30.134Z,-5.50
2018-02-25T06:22:57.483Z,-5.50
2018-02-25T06:25:24.015Z,-5.60
2018-02-25T06:27:50.582Z,-5.60
2018-02-25T06:30:17.139Z,-5.60
2018-02-25T06:32:43.733Z,-5.70
2018-02-25T06:35:10.335Z,-5.60
2018-02-25T06:37:37.197Z,-5.50
2018-02-25T06:40:04.583Z,-5.60
2018-02-25T06:42:31.143Z,-5.70
2018-02-25T06:44:57.757Z,-5.60
2018-02-25T06:47:24.323Z,-5.60
2018-02-25T06:49:59.584Z,-5.60
2018-02-25T06:52:26.297Z,-5.70
2018-02-25T06:54:52.918Z,-5.60
2018-02-25T06:57:19.488Z,-5.60
2018-02-25T06:59:46.084Z,-5.60
2018-02-25T07:02:13.506Z,-5.60
2018-02-25T07:04:42.182Z,-5.60
2018-02-25T07:07:08.743Z,-5.50
2018-02-25T07:09:35.328Z,-5.50
2018-02-25T07:12:02.656Z,-5.50
2018-02-25T07:14:29.227Z,-5.50
2018-02-25T07:16:55.815Z,-5.50
2018-02-25T07:19:22.368Z,-5.50
2018-02-25T07:21:51.144Z,-5.40
2018-02-25T07:24:21.517Z,-5.50
2018-02-25T07:26:48.171Z,-5.40
2018-02-25T07:29:15.479Z,-5.30
2018-02-25T07:31:42.063Z,-5.30
2018-02-25T07:34:08.674Z,-5.30
2018-02-25T07:36:35.638Z,-5.30
2018-02-25T07:39:02.281Z,-5.30
2018-02-25T07:41:28.913Z,-5.20
2018-02-25T07:43:55.554Z,-5.10
2018-02-25T07:46:22.116Z,-5.10
2018-02-25T07:48:48.752Z,-5.10
2018-02-25T07:51:15.397Z,-5.00
2018-02-25T07:53:42.079Z,-5.00
2018-02-25T07:56:08.687Z,-5.10
2018-02-25T07:58:35.373Z,-5.10
2018-02-25T08:01:01.973Z,-5.00
2018-02-25T08:03:28.593Z,-5.00
2018-02-25T08:05:55.196Z,-4.90
2018-02-25T08:08:21.791Z,-4.90
2018-02-25T08:10:48.408Z,-4.90
2018-02-25T08:13:14.995Z,-4.70
2018-02-25T08:15:42.331Z,-4.60
2018-02-25T08:18:08.897Z,-4.60
2018-02-25T08:20:35.450Z,-4.60
2018-02-25T08:23:02.777Z,-4.50
2018-02-25T08:25:29.361Z,-4.60
2018-02-25T08:27:55.942Z,-4.60
2018-02-25T08:30:22.548Z,-4.50
2018-02-25T08:32:49.110Z,-4.40
2018-02-25T08:35:15.683Z,-4.30
2018-02-25T08:37:42.259Z,-4.40
2018-02-25T08:40:08.811Z,-4.40
2018-02-25T08:42:35.352Z,-4.20
2018-02-25T08:45:01.965Z,-4.20
2018-02-25T08:47:29.322Z,-4.10
2018-02-25T08:49:55.936Z,-4.10
2018-02-25T08:52:23.263Z,-4.00
2018-02-25T08:54:50.636Z,-3.80
2018-02-25T08:57:17.199Z,-3.80
2018-02-25T08:59:44.177Z,-3.80
2018-02-25T09:02:17.891Z,-3.80
2018-02-25T09:05:09.118Z,-3.70
2018-02-25T09:07:35.685Z,-3.80
2018-02-25T09:10:02.239Z,-3.70
2018-02-25T09:12:28.812Z,-3.80
2018-02-25T09:14:56.124Z,-3.60
2018-02-25T09:17:22.734Z,-3.60
2018-02-25T09:19:49.351Z,-3.60
2018-02-25T09:22:15.930Z,-3.60
2018-02-25T09:24:43.271Z,-3.20
2018-02-25T09:27:09.889Z,-3.20
2018-02-25T09:29:45.319Z,-3.30
2018-02-25T09:32:12.002Z,-3.20
2018-02-25T09:34:38.587Z,-3.10
2018-02-25T09:37:05.165Z,-2.90
2018-02-25T09:39:31.898Z,-3.00
2018-02-25T09:41:59.282Z,-3.00
2018-02-25T09:44:26.644Z,-3.00
2018-02-25T09:46:53.243Z,-3.00
2018-02-25T09:49:19.946Z,-2.90
2018-02-25T09:51:46.558Z,-2.70
2018-02-25T09:54:13.156Z,-2.70
2018-02-25T09:56:39.810Z,-2.60
2018-02-25T09:59:06.396Z,-2.70
2018-02-25T10:01:33.293Z,-2.70
2018-02-25T10:04:00.700Z,-2.50
2018-02-25T10:06:27.375Z,-2.50
2018-02-25T10:08:54.070Z,-2.50
2018-02-25T10:11:20.670Z,-2.50
2018-02-25T10:13:47.274Z,-2.60
2018-02-25T10:16:14.658Z,-2.10
2018-02-25T10:18:41.305Z,-2.10
2018-02-25T10:21:07.905Z,-2.00
2018-02-25T10:23:34.653Z,-2.20
2018-02-25T10:26:01.320Z,-2.10
2018-02-25T10:28:28.155Z,-2.30
2018-02-25T10:30:54.784Z,-2.40
2018-02-25T10:33:21.359Z,-2.20
2018-02-25T10:35:47.943Z,-1.90
2018-02-25T10:38:15.268Z,-1.80
2018-02-25T10:40:41.938Z,-1.80
2018-02-25T10:43:08.555Z,-1.90
2018-02-25T10:45:35.132Z,-1.90
2018-02-25T10:48:01.836Z,-1.70
2018-02-25T10:50:29.164Z,-1.70
2018-02-25T10:52:55.841Z,-1.80
2018-02-25T10:55:22.546Z,-1.50
2018-02-25T10:57:49.148Z,-1.20
2018-02-25T11:00:21.763Z,-1.40
2018-02-25T11:02:48.366Z,-1.40
2018-02-25T11:05:15.662Z,-1.30
2018-02-25T11:07:42.248Z,-1.30
2018-02-25T11:10:08.870Z,-1.10
2018-02-25T11:12:35.434Z,-1.10
2018-02-25T11:15:02.070Z,-1.20
2018-02-25T11:17:28.805Z,-1.30
2018-02-25T11:19:55.505Z,-1.30
2018-02-25T11:22:22.189Z,-1.00
2018-02-25T11:24:48.767Z,-0.70
2018-02-25T11:27:15.332Z,-0.70
2018-02-25T11:29:41.964Z,-0.90
2018-02-25T11:32:08.568Z,-0.80
2018-02-25T11:34:35.941Z,-0.80
2018-02-25T11:37:02.753Z,-0.80
2018-02-25T11:39:29.488Z,-0.50
2018-02-25T11:41:56.394Z,-0.70
2018-02-25T11:44:23.031Z,-0.60
2018-02-25T11:46:49.611Z,-0.50
2018-02-25T11:49:16.936Z,-0.30
2018-02-25T11:51:43.524Z,-0.40
2018-02-25T11:54:10.902Z,-0.70
2018-02-25T11:56:37.448Z,-0.70
2018-02-25T11:59:04.929Z,-0.50
2018-02-25T12:01:31.636Z,-0.50
2018-02-25T12:03:58.362Z,-0.30
2018-02-25T12:06:24.968Z,-0.40
2018-02-25T12:08:51.551Z,-0.20
2018-02-25T12:11:18.146Z,0.10
2018-02-25T12:13:44.797Z,0.00
2018-02-25T12:16:11.416Z,-0.20
2018-02-25T12:18:38.042Z,0.00
2018-02-25T12:21:04.834Z,-0.10
2018-02-25T12:23:31.421Z,-0.40
2018-02-25T12:25:58.817Z,-0.10
2018-02-25T12:28:25.480Z,-0.10
2018-02-25T12:30:52.045Z,-0.10
2018-02-25T12:33:18.618Z,-0.20
2018-02-25T12:35:45.252Z,-0.10
2018-02-25T12:38:11.895Z,-0.10
2018-02-25T12:40:38.551Z,-0.10
2018-02-25T12:43:05.142Z,0.00
2018-02-25T12:45:31.752Z,-0.10
2018-02-25T12:47:58.553Z,0.20
2018-02-25T12:50:25.198Z,0.10
2018-02-25T12:52:52.527Z,0.20
2018-02-25T12:55:19.275Z,0.20
2018-02-25T12:57:46.056Z,0.10
2018-02-25T13:00:13.453Z,0.30
2018-02-25T13:02:40.093Z,0.40
2018-02-25T13:05:06.706Z,0.60
2018-02-25T13:07:33.276Z,0.40
2018-02-25T13:09:59.868Z,0.50
2018-02-25T13:12:27.082Z,0.50
2018-02-25T13:14:54.421Z,1.00
2018-02-25T13:17:21.473Z,1.00
2018-02-25T13:19:48.040Z,0.80
2018-02-25T13:22:14.672Z,0.40
2018-02-25T13:24:41.233Z,0.50
2018-02-25T13:27:07.816Z,0.80
2018-02-25T13:29:34.666Z,0.90
2018-02-25T13:32:01.347Z,0.80
2018-02-25T13:34:28.090Z,0.70
2018-02-25T13:36:54.719Z,0.70
2018-02-25T13:39:24.312Z,0.60
2018-02-25T13:41:54.395Z,0.60
2018-02-25T13:44:22.093Z,0.50
2018-02-25T13:46:48.703Z,0.60
2018-02-25T13:49:19.614Z,0.60
2018-02-25T13:51:46.274Z,0.60
2018-02-25T13:54:12.876Z,0.80
2018-02-25T13:56:39.532Z,0.50
2018-02-25T13:59:09.453Z,0.60
2018-02-25T14:01:36.037Z,0.70
2018-02-25T14:04:02.751Z,0.70
2018-02-25T14:06:29.694Z,0.90
2018-02-25T14:08:56.322Z,0.90
2018-02-25T14:11:23.674Z,1.00
2018-02-25T14:13:50.675Z,0.90
2018-02-25T14:16:17.395Z,0.80
2018-02-25T14:18:44.100Z,0.70
2018-02-25T14:21:10.731Z,0.80
2018-02-25T14:23:37.319Z,0.70
2018-02-25T14:26:03.932Z,0.70
2018-02-25T14:28:31.280Z,0.80
2018-02-25T14:30:58.484Z,1.10
2018-02-25T14:33:25.793Z,0.80
2018-02-25T14:35:52.899Z,0.70
2018-02-25T14:38:19.483Z,0.70
2018-02-25T14:40:46.081Z,0.80
2018-02-25T14:43:12.808Z,1.00
2018-02-25T14:45:39.409Z,1.00
2018-02-25T14:48:06.001Z,1.10
2018-02-25T14:50:32.649Z,1.00
2018-02-25T14:52:59.505Z,0.80
2018-02-25T14:55:27.297Z,0.90
2018-02-25T14:57:53.898Z,0.70
2018-02-25T15:00:20.527Z,0.60
2018-02-25T15:02:47.324Z,0.80
2018-02-25T15:05:14.501Z,0.70
2018-02-25T15:07:41.878Z,0.60
2018-02-25T15:10:09.065Z,0.50
2018-02-25T15:12:40.647Z,0.70
2018-02-25T15:15:08.574Z,0.90
2018-02-25T15:17:36.583Z,0.70
2018-02-25T15:20:03.383Z,0.70
2018-02-25T15:22:30.123Z,0.70
2018-02-25T15:25:00.915Z,0.90
2018-02-25T15:27:29.938Z,0.90
2018-02-25T15:30:01.605Z,1.00
2018-02-25T15:32:28.294Z,0.80
2018-02-25T15:34:54.979Z,1.00
2018-02-25T15:37:22.085Z,0.80
2018-02-25T15:39:48.801Z,0.60
2018-02-25T15:42:15.386Z,0.50
2018-02-25T15:44:41.969Z,0.30
2018-02-25T15:47:08.567Z,0.10
2018-02-25T15:50:03.019Z,0.30
2018-02-25T15:52:29.650Z,0.30
2018-02-25T15:54:56.219Z,0.30
2018-02-25T15:57:22.802Z,0.30
2018-02-25T15:59:50.441Z,0.20
2018-02-25T16:02:18.116Z,0.10
2018-02-25T16:04:44.739Z,0.00
2018-02-25T16:07:11.351Z,0.20
2018-02-25T16:09:37.955Z,0.20
2018-02-25T16:12:04.534Z,0.10
2018-02-25T16:14:31.128Z,0.10
2018-02-25T16:16:57.718Z,-0.10
2018-02-25T16:19:24.303Z,-0.30
2018-02-25T16:21:51.631Z,-0.50
2018-02-25T16:24:18.273Z,-0.50
2018-02-25T16:26:44.866Z,-0.60
2018-02-25T16:29:12.194Z,-0.60
2018-02-25T16:31:49.211Z,-0.60
2018-02-25T16:34:15.804Z,-0.80
2018-02-25T16:37:01.896Z,-0.70
2018-02-25T16:39:28.505Z,-0.80
2018-02-25T16:41:55.108Z,-0.80
2018-02-25T16:44:21.661Z,-0.90
2018-02-25T16:46:48.269Z,-0.80
2018-02-25T16:49:14.903Z,-0.80
2018-02-25T16:52:01.503Z,-0.90
2018-02-25T16:54:28.121Z,-0.80
2018-02-25T16:56:54.779Z,-0.70
2018-02-25T17:02:21.684Z,-1.10
2018-02-25T17:04:48.341Z,-1.00
2018-02-25T17:07:24.884Z,-1.10
2018-02-25T17:09:51.477Z,-1.10
2018-02-25T17:12:18.079Z,-1.00
2018-02-25T17:14:45.454Z,-1.00
2018-02-25T17:17:12.016Z,-1.00
2018-02-25T17:19:38.648Z,-1.20
2018-02-25T17:22:05.353Z,-1.10
2018-02-25T17:24:31.991Z,-1.20
2018-02-25T17:26:58.627Z,-1.30
2018-02-25T17:29:25.891Z,-1.30
2018-02-25T17:31:52.604Z,-1.40
2018-02-25T17:34:19.991Z,-1.30
2018-02-25T17:36:46.640Z,-1.30
2018-02-25T17:39:13.219Z,-1.40
2018-02-25T17:41:39.802Z,-1.30
2018-02-25T17:44:06.430Z,-1.50
2018-02-25T17:46:33.366Z,-1.40
2018-02-25T17:49:01.034Z,-1.50
2018-02-25T17:51:27.962Z,-1.50
2018-02-25T17:53:54.686Z,-1.60
2018-02-25T17:56:21.382Z,-1.60
2018-02-25T17:58:48.210Z,-1.60
2018-02-25T18:01:15.671Z,-1.70
2018-02-25T18:03:43.020Z,-1.70
2018-02-25T18:06:09.701Z,-1.70
2018-02-25T18:08:36.313Z,-1.80
2018-02-25T18:11:02.922Z,-1.80
2018-02-25T18:13:32.007Z,-1.80
2018-02-25T18:15:58.726Z,-1.90
2018-02-25T18:18:25.415Z,-1.80
2018-02-25T18:20:52.064Z,-2.00
2018-02-25T18:23:18.715Z,-2.00
2018-02-25T18:25:45.319Z,-1.80
2018-02-25T18:28:11.943Z,-2.00
2018-02-25T18:30:38.581Z,-2.10
2018-02-25T18:33:05.185Z,-2.00
2018-02-25T18:35:31.760Z,-2.00
2018-02-25T18:37:58.548Z,-2.00
2018-02-25T18:40:25.186Z,-1.90
2018-02-25T18:42:51.792Z,-2.00
2018-02-25T18:45:18.406Z,-2.00
2018-02-25T18:47:44.975Z,-2.20
2018-02-25T18:50:11.557Z,-2.20
2018-02-25T18:52:38.150Z,-2.30
2018-02-25T18:55:04.821Z,-2.30
2018-02-25T18:57:31.692Z,-2.10
2018-02-25T18:59:58.335Z,-2.30
2018-02-25T19:02:25.978Z,-2.40
2018-02-25T19:04:53.055Z,-2.40
2018-02-25T19:07:19.657Z,-2.40
2018-02-25T19:09:47.239Z,-2.40
2018-02-25T19:12:14.607Z,-2.40
2018-02-25T19:14:41.533Z,-2.40
2018-02-25T19:17:08.354Z,-2.40
2018-02-25T19:19:35.095Z,-2.40
2018-02-25T19:22:01.740Z,-2.50
2018-02-25T19:24:28.448Z,-2.50
2018-02-25T19:26:55.099Z,-2.60
2018-02-25T19:29:21.725Z,-2.60
2018-02-25T19:31:48.668Z,-2.60
2018-02-25T19:34:16.236Z,-2.60
2018-02-25T19:36:48.914Z,-2.60
2018-02-25T19:39:21.414Z,-2.50
2018-02-25T19:41:53.145Z,-2.60
2018-02-25T19:44:21.320Z,-2.70
2018-02-25T19:46:48.264Z,-2.70
2018-02-25T19:49:14.897Z,-2.70
2018-02-25T19:51:41.498Z,-2.80
2018-02-25T19:54:15.499Z,-2.80
2018-02-25T19:56:43.005Z,-2.80
2018-02-25T19:59:09.687Z,-2.80
2018-02-25T20:01:37.272Z,-2.80
2018-02-25T20:04:04.811Z,-2.80
2018-02-25T20:06:31.447Z,-2.80
2018-02-25T20:08:58.239Z,-2.80
2018-02-25T20:11:24.946Z,-2.80
2018-02-25T20:13:51.605Z,-2.90
2018-02-25T20:16:18.461Z,-3.00
2018-02-25T20:18:45.069Z,-3.00
2018-02-25T20:21:11.672Z,-2.90
2018-02-25T20:23:47.273Z,-3.00
2018-02-25T20:26:13.892Z,-3.00
2018-02-25T20:28:40.711Z,-3.00
2018-02-25T20:31:07.497Z,-3.10
2018-02-25T20:33:34.238Z,-3.10
2018-02-25T20:36:00.926Z,-3.20
2018-02-25T20:38:27.551Z,-3.20
2018-02-25T20:41:05.281Z,-3.20
2018-02-25T20:43:32.000Z,-3.20
2018-02-25T20:45:58.601Z,-3.30
2018-02-25T20:48:25.225Z,-3.30
2018-02-25T20:50:51.907Z,-3.30
2018-02-25T20:53:19.265Z,-3.40
2018-02-25T20:55:45.902Z,-3.40
2018-02-25T20:58:12.542Z,-3.40
2018-02-25T21:00:39.320Z,-3.40
2018-02-25T21:03:05.930Z,-3.40
2018-02-25T21:05:32.690Z,-3.50
2018-02-25T21:07:59.333Z,-3.50
2018-02-25T21:10:25.946Z,-3.40
2018-02-25T21:12:53.418Z,-3.30
2018-02-25T21:15:20.136Z,-3.40
2018-02-25T21:17:46.744Z,-3.50
2018-02-25T21:20:13.356Z,-3.50
2018-02-25T21:22:40.738Z,-3.40
2018-02-25T21:25:07.319Z,-3.50
2018-02-25T21:27:33.940Z,-3.50
2018-02-25T21:30:00.561Z,-3.60
2018-02-25T21:32:27.337Z,-3.60
2018-02-25T21:34:53.957Z,-3.60
2018-02-25T21:37:20.629Z,-3.70
2018-02-25T21:39:47.921Z,-3.60
2018-02-25T21:42:14.495Z,-3.60
2018-02-25T21:44:41.121Z,-3.70
2018-02-25T21:47:07.692Z,-3.80
2018-02-25T21:49:34.295Z,-3.80
2018-02-25T21:52:01.631Z,-3.80
2018-02-25T21:54:34.357Z,-3.80
2018-02-25T21:57:07.088Z,-3.80
2018-02-25T21:59:39.940Z,-3.50
2018-02-25T22:02:13.338Z,-3.70
2018-02-25T22:07:22.665Z,-3.80
2018-02-25T22:09:49.266Z,-3.80
2018-02-25T22:14:56.431Z,-3.90
2018-02-25T22:17:23.061Z,-3.90
2018-02-25T22:19:51.759Z,-3.90
2018-02-25T22:22:19.157Z,-3.90
2018-02-25T22:24:47.924Z,-4.00
2018-02-25T22:27:16.264Z,-3.90
2018-02-25T22:29:44.063Z,-3.90
2018-02-25T22:32:11.397Z,-3.80
2018-02-25T22:34:39.087Z,-3.80
2018-02-25T22:37:07.522Z,-3.70
2018-02-25T22:39:35.595Z,-3.80
2018-02-25T22:42:03.520Z,-3.80
2018-02-25T22:44:31.721Z,-3.90
2018-02-25T22:46:59.436Z,-3.80
2018-02-25T22:49:27.414Z,-4.00
2018-02-25T22:51:55.279Z,-4.00
2018-02-25T22:54:23.118Z,-4.00
2018-02-25T22:56:50.548Z,-4.10
2018-02-25T22:59:17.862Z,-3.90
2018-02-25T23:01:45.528Z,-3.90
2018-02-25T23:04:13.339Z,-4.00
2018-02-25T23:06:41.109Z,-3.90
2018-02-25T23:09:08.955Z,-4.00
2018-02-25T23:11:36.885Z,-4.20
2018-02-25T23:14:04.792Z,-4.20
2018-02-25T23:16:32.621Z,-4.30
2018-02-25T23:19:00.437Z,-4.40
2018-02-25T23:21:28.549Z,-4.30
2018-02-25T23:23:56.403Z,-4.20
2018-02-25T23:26:24.159Z,-4.20
2018-02-25T23:28:52.367Z,-4.30
2018-02-25T23:31:20.569Z,-4.30
2018-02-25T23:33:48.817Z,-4.30
2018-02-25T23:36:16.944Z,-4.30
2018-02-25T23:38:45.179Z,-4.50
2018-02-25T23:41:13.485Z,-4.40
2018-02-25T23:43:41.877Z,-4.50
2018-02-25T23:46:10.730Z,-4.20
2018-02-25T23:48:38.622Z,-4.30
2018-02-25T23:51:06.884Z,-4.30
2018-02-25T23:53:34.759Z,-4.40
2018-02-25T23:56:02.512Z,-4.30
2018-02-25T23:58:30.425Z,-4.40
